Time;durP1;ratioP1;P1;durP2;ratioP2;P2;SDS_P1;SDS_P2;PMS_P1;PMS_P2;Temp;Humidity;BMP_temperature;BMP_pressure;BME280_temperature;BME280_humidity;BME280_pressure;Samples;Min_cycle;Max_cycle;Signal;HPM_P1;HPM_P2
2023/10/17 00:01:47;;;;;;;3.90;2.83;;;8.70;99.90;;;;;;5025526;28;20466;-68
2023/10/17 00:06:45;;;;;;;4.38;2.80;;;8.70;99.90;;;;;;5033356;28;20412;-68
2023/10/17 00:09:24;;;;;;;7.05;3.05;;;8.70;99.90;;;;;;5034024;28;20025;-68
2023/10/17 00:14:23;;;;;;;3.88;2.38;;;8.70;99.90;;;;;;5034730;28;20022;-67
2023/10/17 00:16:50;;;;;;;3.47;2.17;;;8.70;99.90;;;;;;5032269;28;20032;-67
2023/10/17 00:19:16;;;;;;;4.47;2.50;;;8.70;99.90;;;;;;5034145;28;20087;-68
2023/10/17 00:21:42;;;;;;;4.35;2.03;;;8.70;99.90;;;;;;5032312;28;20495;-68
2023/10/17 00:24:09;;;;;;;5.32;2.05;;;8.70;99.90;;;;;;5033713;28;20087;-68
2023/10/17 00:26:36;;;;;;;4.20;2.10;;;8.70;99.90;;;;;;5031785;28;20029;-68
2023/10/17 00:29:05;;;;;;;4.18;2.17;;;8.70;99.90;;;;;;5029332;28;20026;-68
2023/10/17 00:31:31;;;;;;;5.75;2.38;;;8.70;99.90;;;;;;5025760;28;20033;-68
2023/10/17 00:33:57;;;;;;;5.63;2.70;;;8.70;99.90;;;;;;5014179;28;20034;-68
2023/10/17 00:36:26;;;;;;;4.10;2.45;;;8.70;99.90;;;;;;5025790;28;20037;-67
2023/10/17 00:39:08;;;;;;;3.70;2.10;;;8.60;99.90;;;;;;5032886;28;20083;-67
2023/10/17 00:41:48;;;;;;;5.40;2.92;;;8.60;99.90;;;;;;5033299;28;20044;-67
2023/10/17 00:44:14;;;;;;;5.07;2.28;;;8.60;99.90;;;;;;5033584;28;20074;-68
2023/10/17 00:46:41;;;;;;;8.85;3.17;;;8.60;99.90;;;;;;5032981;28;20014;-67
2023/10/17 00:49:10;;;;;;;3.97;1.98;;;8.60;99.90;;;;;;5033124;28;20091;-67
2023/10/17 00:51:39;;;;;;;4.15;2.33;;;8.60;99.90;;;;;;5033111;28;20163;-67
2023/10/17 00:54:06;;;;;;;3.03;2.00;;;8.60;99.90;;;;;;5033697;28;20061;-67
2023/10/17 00:56:32;;;;;;;3.92;2.08;;;8.60;99.90;;;;;;5019984;28;20386;-67
2023/10/17 00:58:57;;;;;;;5.85;2.20;;;8.60;99.90;;;;;;5033137;28;20045;-67
2023/10/17 01:01:26;;;;;;;2.55;1.58;;;8.60;99.90;;;;;;5031744;28;20018;-67
2023/10/17 01:03:54;;;;;;;3.40;1.70;;;8.60;99.90;;;;;;5033109;28;20416;-67
2023/10/17 01:06:34;;;;;;;4.75;2.03;;;8.60;99.90;;;;;;5014663;28;20024;-68
2023/10/17 01:09:07;;;;;;;3.35;1.70;;;8.60;99.90;;;;;;5033377;28;20021;-67
2023/10/17 01:11:38;;;;;;;3.25;1.85;;;8.60;99.90;;;;;;5033099;28;20112;-68
2023/10/17 01:14:04;;;;;;;4.15;2.08;;;8.60;99.90;;;;;;5032422;28;20087;-68
2023/10/17 01:16:34;;;;;;;4.70;2.28;;;8.60;99.90;;;;;;5032191;28;20087;-67
2023/10/17 01:19:04;;;;;;;4.30;2.17;;;8.60;99.90;;;;;;5028014;28;20085;-67
2023/10/17 01:21:30;;;;;;;6.78;2.05;;;8.60;99.90;;;;;;5029339;28;20017;-67
2023/10/17 01:23:56;;;;;;;3.15;1.55;;;8.60;99.90;;;;;;5041861;28;20432;-67
2023/10/17 01:26:23;;;;;;;2.75;1.70;;;8.60;99.90;;;;;;5032886;28;20022;-68
2023/10/17 01:28:52;;;;;;;4.15;2.10;;;8.60;99.90;;;;;;5024638;28;20450;-68
2023/10/17 01:31:25;;;;;;;4.35;1.92;;;8.60;99.90;;;;;;5032528;28;20031;-68
2023/10/17 01:33:55;;;;;;;2.65;1.60;;;8.60;99.90;;;;;;5024353;28;20029;-67
2023/10/17 01:36:21;;;;;;;4.35;1.70;;;8.60;99.90;;;;;;5032792;28;20104;-67
2023/10/17 01:38:50;;;;;;;3.40;1.50;;;8.60;99.90;;;;;;5030614;28;20032;-67
2023/10/17 01:41:19;;;;;;;2.22;1.50;;;8.60;99.90;;;;;;5030703;28;20026;-68
2023/10/17 01:43:45;;;;;;;4.53;1.95;;;8.60;99.90;;;;;;5031949;28;20071;-68
2023/10/17 01:46:15;;;;;;;4.85;2.13;;;8.60;99.90;;;;;;5031982;28;20028;-67
2023/10/17 01:48:48;;;;;;;;;;;8.60;99.90;;;;;;5032204;28;20025;-67
2023/10/17 01:51:15;;;;;;;4.07;1.75;;;8.50;99.90;;;;;;5032208;28;19905;-67
2023/10/17 01:53:43;;;;;;;2.95;1.75;;;8.50;99.90;;;;;;5024076;28;20539;-68
2023/10/17 01:56:15;;;;;;;4.88;1.63;;;8.50;99.90;;;;;;5024663;28;20071;-68
2023/10/17 01:58:51;;;;;;;3.42;1.88;;;8.50;99.90;;;;;;5028720;28;20096;-68
2023/10/17 02:01:26;;;;;;;2.08;1.60;;;8.60;99.90;;;;;;5031767;28;20021;-67
2023/10/17 02:03:53;;;;;;;5.35;1.63;;;8.60;99.90;;;;;;5032291;28;20009;-68
2023/10/17 02:06:21;;;;;;;3.22;1.55;;;8.60;99.90;;;;;;5030097;28;20021;-68
2023/10/17 02:08:47;;;;;;;3.03;1.83;;;8.60;99.90;;;;;;5032030;28;20033;-68
2023/10/17 02:11:23;;;;;;;3.53;1.75;;;8.60;99.90;;;;;;5030381;28;20029;-67
2023/10/17 02:13:59;;;;;;;4.03;1.73;;;8.60;99.90;;;;;;5031942;28;20028;-67
2023/10/17 02:16:29;;;;;;;4.78;2.55;;;8.60;99.90;;;;;;5026146;28;20116;-67
2023/10/17 02:18:55;;;;;;;;;;;8.60;99.90;;;;;;5023609;28;20083;-68
2023/10/17 02:21:21;;;;;;;3.92;2.10;;;8.50;99.90;;;;;;5029849;28;20415;-67
2023/10/17 02:23:50;;;;;;;3.60;2.38;;;8.40;99.90;;;;;;5031667;28;20037;-67
2023/10/17 02:26:22;;;;;;;2.95;1.92;;;8.50;99.90;;;;;;5031177;28;20033;-67
2023/10/17 02:28:59;;;;;;;2.90;1.92;;;8.50;99.90;;;;;;5031500;28;20117;-67
2023/10/17 02:31:28;;;;;;;5.15;2.35;;;8.50;99.90;;;;;;5019564;28;20025;-67
2023/10/17 02:33:54;;;;;;;3.00;2.10;;;8.50;99.90;;;;;;5031155;28;20079;-67
2023/10/17 02:36:20;;;;;;;3.53;2.30;;;8.50;99.90;;;;;;5031177;28;20037;-68
2023/10/17 02:38:45;;;;;;;3.60;2.47;;;8.50;99.90;;;;;;5030598;28;20390;-67
2023/10/17 02:41:45;;;;;;;5.57;2.38;;;8.40;99.90;;;;;;5030255;28;20046;-67
2023/10/17 02:44:04;;;;;;;4.43;2.83;;;8.40;99.90;;;;;;5021514;28;20083;-67
2023/10/17 02:46:29;;;;;;;3.55;2.65;;;8.40;99.90;;;;;;5029782;28;20022;-67
2023/10/17 02:48:56;;;;;;;3.65;2.80;;;8.40;99.90;;;;;;5031286;28;20082;-67
2023/10/17 02:53:51;;;;;;;3.65;2.78;;;8.40;99.90;;;;;;5031478;28;20060;-67
2023/10/17 02:56:20;;;;;;;5.20;3.30;;;8.40;99.90;;;;;;5030997;28;20112;-67
2023/10/17 02:58:50;;;;;;;4.32;3.17;;;8.40;99.90;;;;;;5024466;28;20128;-67
2023/10/17 03:01:18;;;;;;;6.07;3.60;;;8.40;99.90;;;;;;5025276;28;20457;-67
2023/10/17 03:03:49;;;;;;;6.50;4.15;;;8.40;99.90;;;;;;5029134;28;20470;-67
2023/10/17 03:06:16;;;;;;;7.63;3.78;;;8.40;99.90;;;;;;5026294;28;20036;-67
2023/10/17 03:08:49;;;;;;;5.10;3.33;;;8.40;99.90;;;;;;5030667;28;20021;-67
2023/10/17 03:11:17;;;;;;;4.50;3.20;;;8.40;99.90;;;;;;5030895;28;20132;-67
2023/10/17 03:13:44;;;;;;;7.00;4.07;;;8.40;99.90;;;;;;5025163;28;20074;-67
2023/10/17 03:16:25;;;;;;;5.68;4.00;;;8.40;99.90;;;;;;5022739;28;20032;-67
2023/10/17 03:18:52;;;;;;;7.82;3.47;;;8.40;99.90;;;;;;5028230;28;20064;-67
2023/10/17 03:21:20;;;;;;;5.25;3.55;;;8.40;99.90;;;;;;5029174;28;20030;-67
2023/10/17 03:23:49;;;;;;;6.05;3.67;;;8.40;99.90;;;;;;5029780;28;20473;-67
2023/10/17 03:26:18;;;;;;;6.57;4.00;;;8.40;99.90;;;;;;5028929;28;20082;-67
2023/10/17 03:28:45;;;;;;;4.63;3.90;;;8.40;99.90;;;;;;5029395;28;20504;-67
2023/10/17 03:31:20;;;;;;;6.63;4.55;;;8.30;99.90;;;;;;5029011;28;20116;-67
2023/10/17 03:33:50;;;;;;;6.05;4.40;;;8.30;99.90;;;;;;5029313;28;20025;-67
2023/10/17 03:39:19;;;;;;;7.20;4.75;;;8.30;99.90;;;;;;5029321;28;20033;-67
2023/10/17 03:41:45;;;;;;;6.93;5.15;;;8.30;99.90;;;;;;5032343;28;20025;-67
2023/10/17 03:44:15;;;;;;;6.30;4.57;;;8.30;99.90;;;;;;5033510;28;20025;-67
2023/10/17 03:46:48;;;;;;;7.18;5.47;;;8.30;99.90;;;;;;5033136;28;20014;-67
2023/10/17 03:49:18;;;;;;;7.60;5.38;;;8.30;99.90;;;;;;5033025;28;20112;-67
2023/10/17 03:51:52;;;;;;;6.78;4.60;;;8.30;99.90;;;;;;5033593;28;20021;-67
2023/10/17 03:54:20;;;;;;;7.55;4.85;;;8.30;99.90;;;;;;5033414;28;20033;-67
2023/10/17 03:56:45;;;;;;;7.35;5.07;;;8.30;99.90;;;;;;5032807;28;20022;-67
2023/10/17 03:59:38;;;;;;;5.72;4.05;;;8.20;99.90;;;;;;5032686;28;20044;-67
2023/10/17 04:02:04;;;;;;;6.32;4.38;;;8.30;99.90;;;;;;5045238;28;20033;-67
2023/10/17 04:04:35;;;;;;;6.60;4.15;;;8.20;99.90;;;;;;5029284;28;20014;-67
2023/10/17 04:07:06;;;;;;;5.43;3.97;;;8.30;99.90;;;;;;5032781;28;20014;-67
2023/10/17 04:09:46;;;;;;;6.78;4.20;;;8.30;99.90;;;;;;5031063;28;20028;-67
2023/10/17 04:12:20;;;;;;;;;;;8.30;99.90;;;;;;5033162;28;20390;-67
2023/10/17 04:14:53;;;;;;;6.43;3.92;;;8.30;99.90;;;;;;5032469;28;20369;-67
2023/10/17 04:17:27;;;;;;;8.30;4.28;;;8.20;99.90;;;;;;5030249;28;20048;-67
2023/10/17 04:19:58;;;;;;;4.57;3.88;;;8.30;99.90;;;;;;5032562;28;20025;-67
2023/10/17 04:22:29;;;;;;;5.30;3.50;;;8.30;99.90;;;;;;5017283;28;20534;-67
2023/10/17 04:25:00;;;;;;;5.82;4.20;;;8.30;99.90;;;;;;5031165;28;20114;-67
2023/10/17 04:27:31;;;;;;;8.05;4.55;;;8.30;99.90;;;;;;5046495;28;20152;-67
2023/10/17 04:29:57;;;;;;;5.43;4.40;;;8.30;99.90;;;;;;5032742;28;20018;-67
2023/10/17 04:32:28;;;;;;;7.03;4.90;;;8.30;99.90;;;;;;5032544;28;20045;-67
2023/10/17 04:34:55;;;;;;;7.95;4.80;;;8.30;99.90;;;;;;5032453;28;20025;-67
2023/10/17 04:37:24;;;;;;;8.35;5.05;;;8.30;99.90;;;;;;5032352;28;20432;-67
2023/10/17 04:39:58;;;;;;;5.85;4.05;;;8.20;99.90;;;;;;5032100;28;20025;-67
2023/10/17 04:45:13;;;;;;;6.18;4.82;;;8.20;99.90;;;;;;5032616;28;20126;-67
2023/10/17 04:47:40;;;;;;;6.57;4.60;;;8.20;99.90;;;;;;5032435;28;20022;-67
2023/10/17 04:50:11;;;;;;;5.32;3.88;;;8.30;99.90;;;;;;5032079;28;20041;-67
2023/10/17 04:52:40;;;;;;;5.57;4.07;;;8.30;99.90;;;;;;5017190;28;20018;-67
2023/10/17 04:55:18;;;;;;;5.97;4.13;;;8.30;99.90;;;;;;5032175;28;20025;-67
2023/10/17 04:57:57;;;;;;;5.53;3.78;;;8.30;99.90;;;;;;5031503;28;20037;-67
2023/10/17 05:06:21;;;;;;;5.32;3.85;;;8.30;99.90;;;;;;5031578;28;20076;-67
2023/10/17 05:09:00;;;;;;;5.15;3.78;;;8.30;99.90;;;;;;5031192;28;20384;-67
2023/10/17 06:17:20;;;;;;;7.50;4.32;;;8.10;99.90;;;;;;5027749;28;20095;-67
2023/10/17 06:19:46;;;;;;;7.95;5.65;;;8.10;99.90;;;;;;5025629;28;20079;-67
2023/10/17 06:34:45;;;;;;;11.02;6.13;;;8.10;99.90;;;;;;5030552;28;20112;-67
2023/10/17 06:37:19;;;;;;;8.30;5.28;;;8.10;99.90;;;;;;5026144;28;20124;-67
2023/10/17 06:39:49;;;;;;;11.15;5.88;;;8.10;99.90;;;;;;5025851;28;20043;-67
2023/10/17 06:42:15;;;;;;;9.43;5.85;;;8.10;99.90;;;;;;5014415;28;20057;-67
2023/10/17 06:45:01;;;;;;;10.05;7.20;;;8.10;99.90;;;;;;5026936;28;20014;-67
2023/10/17 06:47:41;;;;;;;9.48;6.78;;;8.00;99.90;;;;;;5038082;28;20018;-67
2023/10/17 06:55:38;;;;;;;11.50;7.63;;;8.10;99.90;;;;;;5014125;28;20405;-67
2023/10/17 06:58:09;;;;;;;11.60;7.57;;;8.00;99.90;;;;;;5016069;28;20054;-67
2023/10/17 07:00:49;;;;;;;10.32;7.95;;;8.00;99.90;;;;;;5025114;28;20036;-67
2023/10/17 07:03:15;;;;;;;11.18;7.13;;;8.10;99.90;;;;;;5014409;28;20046;-67
2023/10/17 07:05:49;;;;;;;12.07;8.88;;;8.10;99.90;;;;;;5028164;28;20504;-67
2023/10/17 07:08:16;;;;;;;12.57;7.95;;;8.10;99.90;;;;;;5022592;28;20037;-67
2023/10/17 07:10:59;;;;;;;10.90;7.00;;;8.10;99.90;;;;;;5027261;28;20504;-67
2023/10/17 07:14:01;;;;;;;9.00;6.85;;;8.10;99.90;;;;;;5024337;28;20116;-67
2023/10/17 07:22:05;;;;;;;10.50;7.13;;;8.10;99.90;;;;;;5035786;28;20112;-67
2023/10/17 07:24:43;;;;;;;9.57;6.95;;;8.10;99.90;;;;;;5034953;28;20014;-67
2023/10/17 07:27:12;;;;;;;10.43;7.38;;;8.20;99.90;;;;;;5034911;28;20118;-67
2023/10/17 07:29:38;;;;;;;10.48;7.53;;;8.20;99.90;;;;;;5034657;28;20025;-67
2023/10/17 07:32:15;;;;;;;10.18;7.70;;;8.20;99.90;;;;;;5034839;28;20029;-67
2023/10/17 07:34:43;;;;;;;10.15;8.32;;;8.20;99.90;;;;;;5024020;28;20421;-67
2023/10/17 07:39:38;;;;;;;10.23;8.10;;;8.20;99.90;;;;;;5034643;28;20400;-67
2023/10/17 07:42:14;;;;;;;12.82;8.40;;;8.30;99.90;;;;;;5028291;28;20049;-67
2023/10/17 07:44:41;;;;;;;13.95;9.10;;;8.30;99.90;;;;;;5033739;28;20088;-67
2023/10/17 07:47:09;;;;;;;14.18;9.60;;;8.30;99.90;;;;;;5034808;28;20026;-67
2023/10/17 07:49:41;;;;;;;14.13;10.23;;;8.30;99.90;;;;;;5031545;28;20389;-67
2023/10/17 07:52:26;;;;;;;11.63;9.10;;;8.40;99.90;;;;;;5031166;28;20025;-67
2023/10/17 07:55:17;;;;;;;13.65;9.85;;;8.40;99.90;;;;;;5033893;28;20075;-67
2023/10/17 07:57:40;;;;;;;15.63;10.10;;;8.40;99.90;;;;;;5032688;28;20064;-67
2023/10/17 08:03:00;;;;;;;15.82;10.30;;;8.50;99.90;;;;;;5033784;28;20436;-67
2023/10/17 08:05:36;;;;;;;14.48;10.45;;;8.50;99.90;;;;;;5020767;28;20047;-67
2023/10/17 08:08:08;;;;;;;15.82;10.48;;;8.50;99.90;;;;;;5031712;28;20026;-67
2023/10/17 08:10:35;;;;;;;17.58;12.02;;;8.60;99.90;;;;;;5022320;28;20029;-67
2023/10/17 08:13:02;;;;;;;17.42;12.35;;;8.60;99.90;;;;;;5031442;28;20065;-67
2023/10/17 08:15:36;;;;;;;15.27;11.05;;;8.70;99.90;;;;;;5032955;28;20827;-67
2023/10/17 08:18:04;;;;;;;15.45;10.60;;;8.70;99.90;;;;;;5033002;28;20489;-67
2023/10/17 08:20:45;;;;;;;17.08;11.80;;;8.80;99.90;;;;;;5033424;28;20498;-67
2023/10/17 08:23:11;;;;;;;15.68;11.15;;;8.80;99.90;;;;;;5033533;28;20029;-67
2023/10/17 08:25:53;;;;;;;17.77;11.73;;;8.90;99.90;;;;;;5033553;28;20040;-67
2023/10/17 08:28:33;;;;;;;18.58;12.50;;;8.90;99.90;;;;;;5031770;28;20087;-67
2023/10/17 08:36:47;;;;;;;20.42;12.55;;;9.10;99.90;;;;;;5030037;28;20032;-67
2023/10/17 08:39:27;;;;;;;19.08;12.55;;;9.10;99.90;;;;;;5025116;28;20108;-67
2023/10/17 08:41:57;;;;;;;;;;;9.20;99.90;;;;;;5032587;28;20140;-67
2023/10/17 08:44:28;;;;;;;19.27;11.85;;;9.20;99.90;;;;;;5032203;28;20356;-67
2023/10/17 08:46:55;;;;;;;16.92;11.95;;;9.20;99.90;;;;;;5023588;28;20101;-67
2023/10/17 08:49:21;;;;;;;18.02;12.15;;;9.30;99.90;;;;;;5032517;28;20505;-67
2023/10/17 08:51:50;;;;;;;18.85;12.23;;;9.40;99.90;;;;;;5021003;28;20049;-67
2023/10/17 08:54:19;;;;;;;19.38;13.13;;;9.40;99.90;;;;;;5033201;28;20051;-67
2023/10/17 08:56:47;;;;;;;15.68;11.55;;;9.40;99.90;;;;;;5033822;28;20028;-67
2023/10/17 08:59:15;;;;;;;22.05;12.95;;;9.50;99.90;;;;;;5028018;28;20038;-67
2023/10/17 09:02:03;;;;;;;16.25;11.50;;;9.60;99.90;;;;;;5023877;28;20021;-67
2023/10/17 09:04:33;;;;;;;15.00;11.07;;;9.70;99.90;;;;;;5033077;28;20017;-67
2023/10/17 09:07:08;;;;;;;;;;;9.70;99.90;;;;;;5030621;28;20014;-67
2023/10/17 09:09:34;;;;;;;20.77;11.60;;;9.70;99.90;;;;;;5033608;28;19959;-67
2023/10/17 09:12:01;;;;;;;15.63;10.40;;;9.80;99.90;;;;;;5030131;28;20024;-67
2023/10/17 09:14:35;;;;;;;16.55;10.73;;;9.90;99.90;;;;;;5027170;28;20026;-67
2023/10/17 09:19:53;;;;;;;14.73;10.57;;;10.10;99.90;;;;;;5027410;28;20072;-67
2023/10/17 09:22:24;;;;;;;15.25;10.77;;;10.20;99.90;;;;;;5025459;28;20095;-67
2023/10/17 09:24:50;;;;;;;13.43;9.70;;;10.30;99.90;;;;;;5023376;28;20021;-67
2023/10/17 09:27:18;;;;;;;12.43;9.40;;;10.40;99.90;;;;;;5028243;28;20033;-67
2023/10/17 09:29:59;;;;;;;11.23;8.55;;;10.50;99.90;;;;;;5033039;28;20075;-67
2023/10/17 09:32:43;;;;;;;12.35;9.18;;;10.70;99.90;;;;;;5024362;28;20036;-67
2023/10/17 09:35:10;;;;;;;13.98;8.13;;;10.80;99.90;;;;;;5023950;28;20034;-67
2023/10/17 09:37:50;;;;;;;13.20;8.07;;;11.00;99.90;;;;;;5030984;28;20018;-67
2023/10/17 09:40:33;;;;;;;10.20;7.60;;;11.10;99.90;;;;;;5022375;28;20026;-67
2023/10/17 09:43:00;;;;;;;10.65;7.45;;;11.20;99.90;;;;;;5015099;28;20053;-67
2023/10/17 09:45:32;;;;;;;10.98;7.78;;;11.40;99.90;;;;;;5031180;28;20100;-67
2023/10/17 09:48:04;;;;;;;9.02;7.07;;;11.60;99.90;;;;;;5032309;28;20527;-67
2023/10/17 09:50:33;;;;;;;8.98;6.60;;;11.90;99.90;;;;;;5031689;28;20018;-67
2023/10/17 09:53:01;;;;;;;8.95;6.47;;;12.10;99.90;;;;;;5016237;28;20025;-67
2023/10/17 09:55:28;;;;;;;8.70;6.00;;;12.30;99.90;;;;;;5024924;28;20108;-68
2023/10/17 09:58:00;;;;;;;10.77;6.35;;;12.50;99.90;;;;;;5014589;28;20060;-67
2023/10/17 10:00:46;;;;;;;10.40;6.65;;;12.80;99.90;;;;;;5024741;28;20029;-68
2023/10/17 10:03:13;;;;;;;9.23;5.95;;;13.10;99.90;;;;;;5022382;28;20026;-67
2023/10/17 10:05:39;;;;;;;7.05;5.30;;;13.30;99.90;;;;;;5028878;28;20040;-67
2023/10/17 10:08:33;;;;;;;8.82;6.30;;;13.50;99.90;;;;;;5022733;28;20037;-68
2023/10/17 10:11:00;;;;;;;7.47;5.40;;;13.90;99.90;;;;;;5021721;28;20025;-68
2023/10/17 10:13:26;;;;;;;7.60;5.07;;;14.10;99.90;;;;;;5031132;28;20485;-68
2023/10/17 10:16:01;;;;;;;7.65;4.88;;;14.40;99.90;;;;;;5032226;28;20087;-68
2023/10/17 10:18:46;;;;;;;8.68;5.63;;;14.80;99.90;;;;;;5032352;28;20238;-68
2023/10/17 10:21:12;;;;;;;8.98;4.93;;;15.20;99.90;;;;;;5031114;28;20022;-68
2023/10/17 10:23:41;;;;;;;7.53;5.13;;;15.70;99.90;;;;;;5027811;28;20512;-68
2023/10/17 10:26:13;;;;;;;9.85;5.35;;;16.20;99.40;;;;;;5045654;28;20433;-68
2023/10/17 10:28:42;;;;;;;4.57;3.95;;;16.70;97.90;;;;;;5031778;28;20071;-68
2023/10/17 10:31:24;;;;;;;7.73;4.40;;;17.20;97.50;;;;;;5031930;28;20497;-68
2023/10/17 10:33:52;;;;;;;7.00;4.10;;;17.60;96.80;;;;;;5030281;28;20021;-68
2023/10/17 10:36:24;;;;;;;6.05;4.03;;;17.80;95.90;;;;;;5018431;28;20037;-68
2023/10/17 10:38:55;;;;;;;6.97;3.35;;;18.10;94.80;;;;;;5023693;28;20068;-68
2023/10/17 10:41:22;;;;;;;3.72;2.90;;;18.40;94.40;;;;;;5026950;28;20040;-68
2023/10/17 10:43:57;;;;;;;5.57;3.70;;;18.70;94.30;;;;;;5031162;28;20017;-68
2023/10/17 10:46:23;;;;;;;4.57;3.35;;;19.00;93.50;;;;;;5030830;28;20025;-68
2023/10/17 10:48:53;;;;;;;5.55;2.97;;;19.20;92.80;;;;;;5031030;28;20029;-68
2023/10/17 10:51:19;;;;;;;;;;;19.50;92.50;;;;;;5031657;28;20036;-68
2023/10/17 10:53:51;;;;;;;3.95;2.70;;;19.70;92.00;;;;;;5024809;28;20356;-68
2023/10/17 10:56:20;;;;;;;4.18;3.00;;;20.00;91.10;;;;;;5022074;28;20060;-68
2023/10/17 10:58:51;;;;;;;4.40;2.47;;;20.30;88.30;;;;;;5030389;28;20044;-68
2023/10/17 11:01:23;;;;;;;4.03;1.65;;;20.40;86.20;;;;;;5018883;28;20460;-68
2023/10/17 11:03:50;;;;;;;4.35;2.72;;;20.70;86.50;;;;;;5029555;28;20017;-68
2023/10/17 11:06:29;;;;;;;3.30;2.20;;;20.90;83.50;;;;;;5030148;28;20030;-68
2023/10/17 11:08:54;;;;;;;4.80;2.20;;;21.20;82.80;;;;;;5030238;28;20026;-68
2023/10/17 11:11:20;;;;;;;3.97;1.98;;;21.40;81.00;;;;;;5031389;28;20037;-68
2023/10/17 11:13:48;;;;;;;3.78;2.30;;;21.80;79.60;;;;;;5021900;28;20025;-68
2023/10/17 11:16:24;;;;;;;3.22;1.83;;;22.10;78.10;;;;;;5024090;28;20038;-68
2023/10/17 11:18:50;;;;;;;2.88;1.80;;;22.30;77.50;;;;;;5019974;28;20072;-68
2023/10/17 11:21:21;;;;;;;3.63;2.30;;;22.40;77.80;;;;;;5026645;28;20030;-68
2023/10/17 11:24:04;;;;;;;3.33;2.28;;;22.70;76.30;;;;;;5030081;28;20017;-68
2023/10/17 11:26:33;;;;;;;6.43;2.40;;;22.90;73.40;;;;;;5016353;28;20071;-68
2023/10/17 11:29:02;;;;;;;;;;;23.10;70.70;;;;;;5024616;28;20025;-68
2023/10/17 11:31:29;;;;;;;2.53;1.98;;;23.10;70.40;;;;;;5029031;28;20347;-68
2023/10/17 11:33:59;;;;;;;3.80;2.58;;;23.30;70.20;;;;;;5021792;28;20431;-68
2023/10/17 11:36:35;;;;;;;4.28;2.78;;;23.60;69.80;;;;;;5018293;28;20026;-68
2023/10/17 11:39:04;;;;;;;4.53;2.67;;;23.90;67.60;;;;;;5026685;28;20354;-68
2023/10/17 11:41:38;;;;;;;3.30;2.08;;;24.00;65.60;;;;;;5023286;28;20041;-68
2023/10/17 11:44:04;;;;;;;3.58;2.53;;;24.10;64.20;;;;;;5021084;28;20088;-68
2023/10/17 11:46:31;;;;;;;2.75;1.80;;;24.00;64.20;;;;;;5030914;28;20366;-68
2023/10/17 11:49:30;;;;;;;2.92;1.92;;;24.20;64.80;;;;;;5029552;28;20397;-68
2023/10/17 11:52:09;;;;;;;5.57;3.10;;;24.10;62.90;;;;;;5030820;28;20080;-68
2023/10/17 11:55:00;;;;;;;3.28;1.75;;;23.80;62.30;;;;;;5030502;28;20021;-68
2023/10/17 11:57:27;;;;;;;4.13;1.80;;;23.70;63.60;;;;;;5030092;28;20045;-68
2023/10/17 12:00:22;;;;;;;3.40;1.92;;;23.80;64.40;;;;;;5030829;28;20512;-68
2023/10/17 12:02:47;;;;;;;2.28;1.73;;;24.20;63.80;;;;;;5033231;28;20038;-68
2023/10/17 12:05:21;;;;;;;3.53;2.25;;;24.30;62.90;;;;;;5033923;28;20395;-68
2023/10/17 12:07:50;;;;;;;3.05;2.40;;;24.60;61.00;;;;;;5015147;28;20049;-68
2023/10/17 12:10:16;;;;;;;;;;;24.70;59.40;;;;;;5017169;28;20029;-68
2023/10/17 12:12:41;;;;;;;3.22;1.77;;;24.70;58.60;;;;;;5034448;28;19909;-68
2023/10/17 12:15:08;;;;;;;4.07;2.55;;;24.80;58.40;;;;;;5033913;28;20159;-68
2023/10/17 12:17:34;;;;;;;3.22;1.60;;;24.90;57.20;;;;;;5034256;28;20091;-68
2023/10/17 12:20:00;;;;;;;2.97;1.88;;;24.70;57.90;;;;;;5021336;28;20402;-68
2023/10/17 12:22:25;;;;;;;2.53;1.40;;;24.50;58.50;;;;;;5020995;28;20022;-68
2023/10/17 12:24:51;;;;;;;2.38;1.10;;;24.30;59.40;;;;;;5034246;28;20044;-68
2023/10/17 12:27:20;;;;;;;3.53;1.85;;;24.20;60.10;;;;;;5033807;28;20040;-68
2023/10/17 12:29:45;;;;;;;2.47;1.30;;;24.10;59.90;;;;;;5034165;28;20390;-68
2023/10/17 12:32:11;;;;;;;2.30;1.70;;;24.00;60.80;;;;;;5031598;28;20033;-68
2023/10/17 12:34:40;;;;;;;4.28;1.83;;;24.20;60.40;;;;;;5033234;28;20079;-68
2023/10/17 12:37:07;;;;;;;3.67;1.70;;;24.60;59.20;;;;;;5032799;28;20068;-68
2023/10/17 12:39:32;;;;;;;2.58;1.20;;;24.90;59.30;;;;;;5033681;28;20026;-68
2023/10/17 12:41:58;;;;;;;1.52;0.82;;;25.30;59.10;;;;;;5033610;28;20031;-68
2023/10/17 12:44:25;;;;;;;2.75;1.55;;;25.70;59.30;;;;;;5029507;28;20367;-68
2023/10/17 12:46:50;;;;;;;2.80;1.20;;;26.10;57.20;;;;;;5033724;28;20120;-68
2023/10/17 12:49:16;;;;;;;2.97;1.63;;;26.50;57.10;;;;;;5033353;28;20104;-68
2023/10/17 12:51:43;;;;;;;1.77;1.15;;;26.70;55.40;;;;;;5033578;28;20491;-68
2023/10/17 12:54:09;;;;;;;2.63;1.20;;;26.90;53.30;;;;;;5032879;28;20040;-68
2023/10/17 12:56:39;;;;;;;3.92;1.30;;;27.10;53.00;;;;;;5033500;28;20026;-68
2023/10/17 12:59:05;;;;;;;6.03;1.13;;;27.40;52.60;;;;;;5032430;28;20048;-68
2023/10/17 13:01:31;;;;;;;2.65;1.00;;;27.70;52.80;;;;;;5032547;28;20080;-68
2023/10/17 13:03:57;;;;;;;2.60;1.13;;;28.00;51.60;;;;;;5031818;28;20029;-68
2023/10/17 13:06:27;;;;;;;1.90;0.95;;;28.40;51.20;;;;;;5033283;28;20030;-68
2023/10/17 13:08:59;;;;;;;2.90;1.15;;;29.20;51.20;;;;;;5032654;28;20029;-68
2023/10/17 13:11:25;;;;;;;2.85;1.38;;;29.90;50.00;;;;;;5048805;28;20441;-68
2023/10/17 13:13:51;;;;;;;2.30;1.10;;;30.50;48.30;;;;;;5032178;28;20025;-68
2023/10/17 13:16:16;;;;;;;2.72;1.48;;;31.10;47.30;;;;;;5030585;28;20026;-68
2023/10/17 13:18:42;;;;;;;3.42;1.05;;;31.20;45.80;;;;;;5030161;28;20021;-68
2023/10/17 13:21:13;;;;;;;2.40;1.10;;;31.30;45.50;;;;;;5031704;28;20037;-68
2023/10/17 13:23:39;;;;;;;1.75;0.90;;;31.30;45.20;;;;;;5033021;28;20079;-68
2023/10/17 13:26:11;;;;;;;1.75;0.80;;;31.60;45.90;;;;;;5031637;28;20017;-68
2023/10/17 13:28:37;;;;;;;2.28;1.05;;;31.70;45.60;;;;;;5027783;28;20505;-68
2023/10/17 13:31:16;;;;;;;1.92;0.73;;;32.00;44.00;;;;;;5030887;28;20393;-68
2023/10/17 13:33:43;;;;;;;2.45;0.90;;;32.40;43.20;;;;;;5025923;28;20022;-68
2023/10/17 13:36:16;;;;;;;1.88;1.08;;;32.40;43.10;;;;;;5032410;28;20036;-68
2023/10/17 13:38:43;;;;;;;2.03;1.00;;;32.30;43.00;;;;;;5031501;28;20038;-68
2023/10/17 13:41:10;;;;;;;2.88;0.90;;;32.40;41.50;;;;;;5025816;28;20542;-68
2023/10/17 13:43:36;;;;;;;2.60;0.93;;;32.00;41.70;;;;;;5030568;28;20116;-68
2023/10/17 13:46:13;;;;;;;1.95;1.10;;;32.00;42.40;;;;;;5031864;28;20022;-68
2023/10/17 13:48:40;;;;;;;2.53;0.80;;;32.00;41.60;;;;;;5011561;28;20033;-68
2023/10/17 13:51:06;;;;;;;1.45;0.90;;;31.90;42.00;;;;;;5028253;28;20028;-68
2023/10/17 13:53:33;;;;;;;2.55;0.98;;;32.00;42.30;;;;;;5032528;28;20032;-68
2023/10/17 13:55:59;;;;;;;2.13;0.90;;;31.90;41.60;;;;;;5032162;28;20079;-68
2023/10/17 13:58:24;;;;;;;1.15;0.70;;;31.50;41.70;;;;;;5030706;28;20042;-68
2023/10/17 14:00:54;;;;;;;4.47;0.70;;;31.10;42.50;;;;;;5030737;28;20028;-68
2023/10/17 14:03:22;;;;;;;1.63;0.73;;;31.00;41.90;;;;;;5032292;28;20116;-68
2023/10/17 14:05:47;;;;;;;1.02;0.65;;;30.40;42.30;;;;;;5030384;28;20488;-68
2023/10/17 14:08:14;;;;;;;1.98;0.85;;;29.70;42.40;;;;;;5031124;28;20033;-68
2023/10/17 14:10:43;;;;;;;1.75;0.90;;;29.40;43.00;;;;;;5029676;28;20057;-68
2023/10/17 14:13:11;;;;;;;2.22;1.00;;;29.50;42.90;;;;;;5024445;28;20044;-68
2023/10/17 14:15:37;;;;;;;1.63;0.80;;;29.80;43.10;;;;;;5031467;28;20104;-68
2023/10/17 14:18:14;;;;;;;1.15;0.90;;;29.90;43.00;;;;;;5031634;28;20788;-68
2023/10/17 14:21:05;;;;;;;2.70;1.30;;;30.10;43.00;;;;;;5026257;28;20017;-68
2023/10/17 14:23:32;;;;;;;2.17;1.10;;;30.30;42.80;;;;;;5029446;28;20040;-68
2023/10/17 14:26:07;;;;;;;1.20;0.80;;;30.40;43.30;;;;;;5030606;28;20028;-68
2023/10/17 14:28:36;;;;;;;1.65;0.90;;;30.50;42.40;;;;;;5031682;28;20096;-68
2023/10/17 14:31:09;;;;;;;2.38;1.00;;;30.30;41.80;;;;;;5029790;28;20025;-68
2023/10/17 14:33:35;;;;;;;1.65;0.90;;;29.80;41.90;;;;;;5030173;28;20075;-68
2023/10/17 14:36:04;;;;;;;2.72;1.08;;;29.40;42.00;;;;;;5028090;28;20500;-68
2023/10/17 14:38:32;;;;;;;2.80;1.00;;;29.20;42.20;;;;;;5028077;28;20553;-68
2023/10/17 14:40:58;;;;;;;3.60;0.90;;;29.00;42.40;;;;;;5031028;28;20022;-68
2023/10/17 14:43:25;;;;;;;2.58;1.00;;;28.80;42.30;;;;;;5013251;28;20382;-68
2023/10/17 14:45:53;;;;;;;1.30;0.90;;;28.70;42.80;;;;;;5031244;28;20381;-68
2023/10/17 14:48:20;;;;;;;2.17;1.00;;;28.70;42.70;;;;;;5028404;28;20033;-68
2023/10/17 14:50:45;;;;;;;1.45;0.85;;;28.70;42.90;;;;;;5028197;28;20275;-68
2023/10/17 14:53:11;;;;;;;1.10;0.93;;;28.50;43.10;;;;;;5026597;28;20377;-68
2023/10/17 14:55:37;;;;;;;2.28;1.25;;;28.50;42.90;;;;;;5029338;28;20101;-68
2023/10/17 14:58:06;;;;;;;2.88;1.10;;;28.30;42.90;;;;;;5025504;28;20088;-68
2023/10/17 15:00:34;;;;;;;2.30;1.10;;;28.10;43.00;;;;;;5024373;28;20482;-68
2023/10/17 15:03:00;;;;;;;1.85;1.20;;;27.80;43.70;;;;;;5029100;28;20022;-68
2023/10/17 15:05:25;;;;;;;1.70;1.23;;;27.70;43.40;;;;;;5031185;28;20071;-68
2023/10/17 15:07:51;;;;;;;2.05;1.10;;;27.60;43.60;;;;;;5028902;28;20458;-68
2023/10/17 15:10:17;;;;;;;2.88;1.15;;;27.40;44.10;;;;;;5030385;28;20033;-68